sensor_id;sensor_type;location;lat;lon;timestamp;P1;durP1;ratioP1;P2;durP2;ratioP2
17091;SDS011;8661;45.700;4.880;2023-03-01T00:02:01;17.23;;;11.07;;
17091;SDS011;8661;45.700;4.880;2023-03-01T00:04:29;15.47;;;10.30;;
17091;SDS011;8661;45.700;4.880;2023-03-01T00:06:58;17.67;;;12.00;;
17091;SDS011;8661;45.700;4.880;2023-03-01T00:09:24;14.57;;;11.03;;
17091;SDS011;8661;45.700;4.880;2023-03-01T00:11:51;18.53;;;11.43;;
17091;SDS011;8661;45.700;4.880;2023-03-01T00:14:18;17.00;;;10.87;;
17091;SDS011;8661;45.700;4.880;2023-03-01T00:16:45;17.87;;;11.27;;
17091;SDS011;8661;45.700;4.880;2023-03-01T00:19:14;18.83;;;11.73;;
17091;SDS011;8661;45.700;4.880;2023-03-01T00:21:42;19.53;;;11.70;;
17091;SDS011;8661;45.700;4.880;2023-03-01T00:24:11;16.83;;;12.03;;
17091;SDS011;8661;45.700;4.880;2023-03-01T00:26:38;16.30;;;10.63;;
17091;SDS011;8661;45.700;4.880;2023-03-01T00:29:05;17.40;;;11.43;;
17091;SDS011;8661;45.700;4.880;2023-03-01T00:31:33;15.07;;;11.00;;
17091;SDS011;8661;45.700;4.880;2023-03-01T00:34:00;18.53;;;12.07;;
17091;SDS011;8661;45.700;4.880;2023-03-01T00:36:29;16.37;;;11.90;;
17091;SDS011;8661;45.700;4.880;2023-03-01T00:38:58;15.77;;;11.37;;
17091;SDS011;8661;45.700;4.880;2023-03-01T00:41:26;16.67;;;10.90;;
17091;SDS011;8661;45.700;4.880;2023-03-01T00:43:53;16.43;;;11.40;;
17091;SDS011;8661;45.700;4.880;2023-03-01T00:46:21;18.13;;;11.77;;
17091;SDS011;8661;45.700;4.880;2023-03-01T00:48:50;17.67;;;11.63;;
17091;SDS011;8661;45.700;4.880;2023-03-01T00:51:17;17.80;;;11.67;;
17091;SDS011;8661;45.700;4.880;2023-03-01T00:53:46;17.03;;;11.40;;
17091;SDS011;8661;45.700;4.880;2023-03-01T00:56:14;15.73;;;11.57;;
17091;SDS011;8661;45.700;4.880;2023-03-01T00:58:42;16.10;;;11.07;;
17091;SDS011;8661;45.700;4.880;2023-03-01T01:01:09;16.87;;;12.03;;
17091;SDS011;8661;45.700;4.880;2023-03-01T01:03:43;16.97;;;11.00;;
17091;SDS011;8661;45.700;4.880;2023-03-01T01:06:15;16.20;;;10.90;;
17091;SDS011;8661;45.700;4.880;2023-03-01T01:08:43;19.37;;;12.80;;
17091;SDS011;8661;45.700;4.880;2023-03-01T01:11:10;17.30;;;11.00;;
17091;SDS011;8661;45.700;4.880;2023-03-01T01:13:38;17.77;;;12.50;;
17091;SDS011;8661;45.700;4.880;2023-03-01T01:16:06;18.97;;;12.47;;
17091;SDS011;8661;45.700;4.880;2023-03-01T01:18:34;17.77;;;11.57;;
17091;SDS011;8661;45.700;4.880;2023-03-01T01:21:05;17.77;;;12.23;;
17091;SDS011;8661;45.700;4.880;2023-03-01T01:23:33;15.80;;;12.03;;
17091;SDS011;8661;45.700;4.880;2023-03-01T01:26:04;17.77;;;12.13;;
17091;SDS011;8661;45.700;4.880;2023-03-01T01:28:31;18.17;;;11.63;;
17091;SDS011;8661;45.700;4.880;2023-03-01T01:30:58;17.73;;;11.87;;
17091;SDS011;8661;45.700;4.880;2023-03-01T01:33:27;19.07;;;12.17;;
17091;SDS011;8661;45.700;4.880;2023-03-01T01:35:56;19.90;;;12.03;;
17091;SDS011;8661;45.700;4.880;2023-03-01T01:38:23;18.73;;;11.83;;
17091;SDS011;8661;45.700;4.880;2023-03-01T01:40:50;17.17;;;11.93;;
17091;SDS011;8661;45.700;4.880;2023-03-01T01:43:19;17.87;;;12.30;;
17091;SDS011;8661;45.700;4.880;2023-03-01T01:45:48;18.60;;;12.20;;
17091;SDS011;8661;45.700;4.880;2023-03-01T01:48:16;20.23;;;12.83;;
17091;SDS011;8661;45.700;4.880;2023-03-01T01:50:47;17.47;;;12.10;;
17091;SDS011;8661;45.700;4.880;2023-03-01T01:53:20;16.77;;;12.53;;
17091;SDS011;8661;45.700;4.880;2023-03-01T01:55:49;21.40;;;12.57;;
17091;SDS011;8661;45.700;4.880;2023-03-01T01:58:20;19.03;;;13.00;;
17091;SDS011;8661;45.700;4.880;2023-03-01T02:00:48;19.37;;;12.53;;
17091;SDS011;8661;45.700;4.880;2023-03-01T02:03:17;19.37;;;12.27;;
17091;SDS011;8661;45.700;4.880;2023-03-01T02:05:52;19.33;;;13.17;;
17091;SDS011;8661;45.700;4.880;2023-03-01T02:08:23;18.93;;;12.37;;
17091;SDS011;8661;45.700;4.880;2023-03-01T02:10:53;17.83;;;12.17;;
17091;SDS011;8661;45.700;4.880;2023-03-01T02:13:22;18.07;;;11.77;;
17091;SDS011;8661;45.700;4.880;2023-03-01T02:15:49;19.87;;;13.47;;
17091;SDS011;8661;45.700;4.880;2023-03-01T02:18:17;18.97;;;12.63;;
17091;SDS011;8661;45.700;4.880;2023-03-01T02:20:49;18.67;;;12.70;;
17091;SDS011;8661;45.700;4.880;2023-03-01T02:23:27;22.60;;;13.23;;
17091;SDS011;8661;45.700;4.880;2023-03-01T02:25:57;18.63;;;11.87;;
17091;SDS011;8661;45.700;4.880;2023-03-01T02:28:32;18.57;;;12.70;;
17091;SDS011;8661;45.700;4.880;2023-03-01T02:31:01;19.53;;;12.83;;
17091;SDS011;8661;45.700;4.880;2023-03-01T02:33:46;19.90;;;12.37;;
17091;SDS011;8661;45.700;4.880;2023-03-01T02:36:15;20.07;;;13.37;;
17091;SDS011;8661;45.700;4.880;2023-03-01T02:38:44;21.00;;;12.80;;
17091;SDS011;8661;45.700;4.880;2023-03-01T02:41:13;20.63;;;14.30;;
17091;SDS011;8661;45.700;4.880;2023-03-01T02:43:44;20.20;;;13.33;;
17091;SDS011;8661;45.700;4.880;2023-03-01T02:46:14;19.37;;;13.13;;
17091;SDS011;8661;45.700;4.880;2023-03-01T02:48:44;21.13;;;13.47;;
17091;SDS011;8661;45.700;4.880;2023-03-01T02:51:24;20.50;;;13.40;;
17091;SDS011;8661;45.700;4.880;2023-03-01T02:54:07;21.73;;;12.97;;
17091;SDS011;8661;45.700;4.880;2023-03-01T02:56:39;20.07;;;13.40;;
17091;SDS011;8661;45.700;4.880;2023-03-01T02:59:08;20.23;;;13.13;;
17091;SDS011;8661;45.700;4.880;2023-03-01T03:01:36;19.83;;;13.10;;
17091;SDS011;8661;45.700;4.880;2023-03-01T03:04:04;20.13;;;13.77;;
17091;SDS011;8661;45.700;4.880;2023-03-01T03:06:31;21.70;;;13.67;;
17091;SDS011;8661;45.700;4.880;2023-03-01T03:08:58;20.47;;;13.30;;
17091;SDS011;8661;45.700;4.880;2023-03-01T03:11:25;21.60;;;13.50;;
17091;SDS011;8661;45.700;4.880;2023-03-01T03:13:53;19.53;;;13.40;;
17091;SDS011;8661;45.700;4.880;2023-03-01T03:16:22;21.73;;;13.97;;
17091;SDS011;8661;45.700;4.880;2023-03-01T03:18:49;19.63;;;13.57;;
17091;SDS011;8661;45.700;4.880;2023-03-01T03:21:16;21.30;;;12.70;;
17091;SDS011;8661;45.700;4.880;2023-03-01T03:23:43;19.20;;;14.00;;
17091;SDS011;8661;45.700;4.880;2023-03-01T03:26:10;20.13;;;13.20;;
17091;SDS011;8661;45.700;4.880;2023-03-01T03:28:40;19.03;;;13.17;;
17091;SDS011;8661;45.700;4.880;2023-03-01T03:31:07;19.17;;;13.23;;
17091;SDS011;8661;45.700;4.880;2023-03-01T03:33:36;20.03;;;13.47;;
17091;SDS011;8661;45.700;4.880;2023-03-01T03:36:03;18.97;;;13.17;;
17091;SDS011;8661;45.700;4.880;2023-03-01T03:38:30;19.77;;;12.87;;
17091;SDS011;8661;45.700;4.880;2023-03-01T03:41:01;20.67;;;13.47;;
17091;SDS011;8661;45.700;4.880;2023-03-01T03:43:31;21.80;;;12.90;;
17091;SDS011;8661;45.700;4.880;2023-03-01T03:45:59;17.97;;;12.53;;
17091;SDS011;8661;45.700;4.880;2023-03-01T03:48:26;21.07;;;13.67;;
17091;SDS011;8661;45.700;4.880;2023-03-01T03:50:55;19.00;;;13.27;;
17091;SDS011;8661;45.700;4.880;2023-03-01T03:53:23;18.17;;;12.80;;
17091;SDS011;8661;45.700;4.880;2023-03-01T03:55:51;19.60;;;13.10;;
17091;SDS011;8661;45.700;4.880;2023-03-01T03:58:19;21.60;;;14.20;;
17091;SDS011;8661;45.700;4.880;2023-03-01T04:00:49;18.53;;;12.83;;
17091;SDS011;8661;45.700;4.880;2023-03-01T04:03:18;19.87;;;13.20;;
17091;SDS011;8661;45.700;4.880;2023-03-01T04:05:47;22.50;;;13.53;;
17091;SDS011;8661;45.700;4.880;2023-03-01T04:08:17;19.70;;;13.33;;
17091;SDS011;8661;45.700;4.880;2023-03-01T04:10:46;22.90;;;13.60;;
17091;SDS011;8661;45.700;4.880;2023-03-01T04:13:15;20.50;;;13.20;;
17091;SDS011;8661;45.700;4.880;2023-03-01T04:15:44;21.73;;;13.57;;
17091;SDS011;8661;45.700;4.880;2023-03-01T04:18:12;21.40;;;13.43;;
17091;SDS011;8661;45.700;4.880;2023-03-01T04:20:40;20.63;;;13.23;;
17091;SDS011;8661;45.700;4.880;2023-03-01T04:23:09;21.50;;;13.50;;
17091;SDS011;8661;45.700;4.880;2023-03-01T04:25:40;20.40;;;13.00;;
17091;SDS011;8661;45.700;4.880;2023-03-01T04:28:09;22.07;;;13.33;;
17091;SDS011;8661;45.700;4.880;2023-03-01T04:30:36;21.47;;;12.93;;
17091;SDS011;8661;45.700;4.880;2023-03-01T04:33:04;22.33;;;13.60;;
17091;SDS011;8661;45.700;4.880;2023-03-01T04:35:32;21.53;;;12.97;;
17091;SDS011;8661;45.700;4.880;2023-03-01T04:38:01;22.03;;;13.10;;
17091;SDS011;8661;45.700;4.880;2023-03-01T04:40:29;18.53;;;12.57;;
17091;SDS011;8661;45.700;4.880;2023-03-01T04:42:57;19.33;;;13.33;;
17091;SDS011;8661;45.700;4.880;2023-03-01T04:45:25;19.93;;;12.83;;
17091;SDS011;8661;45.700;4.880;2023-03-01T04:47:52;20.80;;;13.77;;
17091;SDS011;8661;45.700;4.880;2023-03-01T04:50:20;19.43;;;13.40;;
17091;SDS011;8661;45.700;4.880;2023-03-01T04:52:48;24.43;;;14.37;;
17091;SDS011;8661;45.700;4.880;2023-03-01T04:55:16;18.97;;;13.37;;
17091;SDS011;8661;45.700;4.880;2023-03-01T04:57:42;21.03;;;13.30;;
17091;SDS011;8661;45.700;4.880;2023-03-01T05:00:12;23.63;;;14.50;;
17091;SDS011;8661;45.700;4.880;2023-03-01T05:02:49;19.80;;;13.67;;
17091;SDS011;8661;45.700;4.880;2023-03-01T05:05:22;22.83;;;12.47;;
17091;SDS011;8661;45.700;4.880;2023-03-01T05:07:54;21.33;;;13.80;;
17091;SDS011;8661;45.700;4.880;2023-03-01T05:10:21;20.43;;;13.37;;
17091;SDS011;8661;45.700;4.880;2023-03-01T05:12:49;22.13;;;13.93;;
17091;SDS011;8661;45.700;4.880;2023-03-01T05:15:18;22.83;;;14.07;;
17091;SDS011;8661;45.700;4.880;2023-03-01T05:17:46;20.63;;;13.73;;
17091;SDS011;8661;45.700;4.880;2023-03-01T05:20:13;22.90;;;14.17;;
17091;SDS011;8661;45.700;4.880;2023-03-01T05:22:41;21.67;;;14.63;;
17091;SDS011;8661;45.700;4.880;2023-03-01T05:25:08;20.80;;;13.90;;
17091;SDS011;8661;45.700;4.880;2023-03-01T05:27:35;21.90;;;14.23;;
17091;SDS011;8661;45.700;4.880;2023-03-01T05:30:02;21.73;;;13.33;;
17091;SDS011;8661;45.700;4.880;2023-03-01T05:32:40;20.23;;;13.53;;
17091;SDS011;8661;45.700;4.880;2023-03-01T05:35:09;19.40;;;13.57;;
17091;SDS011;8661;45.700;4.880;2023-03-01T05:37:39;20.93;;;13.83;;
17091;SDS011;8661;45.700;4.880;2023-03-01T05:40:08;20.83;;;13.53;;
17091;SDS011;8661;45.700;4.880;2023-03-01T05:42:41;25.50;;;15.13;;
17091;SDS011;8661;45.700;4.880;2023-03-01T05:45:11;23.20;;;14.30;;
17091;SDS011;8661;45.700;4.880;2023-03-01T05:47:41;21.50;;;13.70;;
17091;SDS011;8661;45.700;4.880;2023-03-01T05:50:13;23.07;;;14.83;;
17091;SDS011;8661;45.700;4.880;2023-03-01T05:52:44;23.60;;;13.87;;
17091;SDS011;8661;45.700;4.880;2023-03-01T05:55:11;20.87;;;13.50;;
17091;SDS011;8661;45.700;4.880;2023-03-01T05:57:38;23.45;;;15.93;;
17091;SDS011;8661;45.700;4.880;2023-03-01T06:00:09;22.87;;;14.67;;
17091;SDS011;8661;45.700;4.880;2023-03-01T06:02:37;21.53;;;14.50;;
17091;SDS011;8661;45.700;4.880;2023-03-01T06:05:06;20.07;;;13.33;;
17091;SDS011;8661;45.700;4.880;2023-03-01T06:07:35;21.50;;;13.90;;
17091;SDS011;8661;45.700;4.880;2023-03-01T06:10:02;18.77;;;13.63;;
17091;SDS011;8661;45.700;4.880;2023-03-01T06:12:30;21.67;;;14.13;;
17091;SDS011;8661;45.700;4.880;2023-03-01T06:14:57;23.07;;;14.87;;
17091;SDS011;8661;45.700;4.880;2023-03-01T06:17:24;23.33;;;14.50;;
17091;SDS011;8661;45.700;4.880;2023-03-01T06:19:52;22.70;;;14.63;;
17091;SDS011;8661;45.700;4.880;2023-03-01T06:22:20;24.33;;;15.23;;
17091;SDS011;8661;45.700;4.880;2023-03-01T06:24:47;22.63;;;14.40;;
17091;SDS011;8661;45.700;4.880;2023-03-01T06:27:14;24.63;;;14.03;;
17091;SDS011;8661;45.700;4.880;2023-03-01T06:29:41;24.07;;;14.97;;
17091;SDS011;8661;45.700;4.880;2023-03-01T06:32:08;25.73;;;15.23;;
17091;SDS011;8661;45.700;4.880;2023-03-01T06:34:34;20.50;;;13.80;;
17091;SDS011;8661;45.700;4.880;2023-03-01T06:37:01;26.60;;;14.87;;
17091;SDS011;8661;45.700;4.880;2023-03-01T06:39:31;22.70;;;14.53;;
17091;SDS011;8661;45.700;4.880;2023-03-01T06:41:59;22.43;;;14.47;;
17091;SDS011;8661;45.700;4.880;2023-03-01T06:44:26;23.20;;;15.20;;
17091;SDS011;8661;45.700;4.880;2023-03-01T06:46:53;23.07;;;14.53;;
17091;SDS011;8661;45.700;4.880;2023-03-01T06:49:20;22.97;;;14.27;;
17091;SDS011;8661;45.700;4.880;2023-03-01T06:51:47;23.20;;;14.47;;
17091;SDS011;8661;45.700;4.880;2023-03-01T06:54:14;24.03;;;15.47;;
17091;SDS011;8661;45.700;4.880;2023-03-01T06:56:44;23.37;;;14.53;;
17091;SDS011;8661;45.700;4.880;2023-03-01T06:59:13;24.30;;;15.93;;
17091;SDS011;8661;45.700;4.880;2023-03-01T07:01:40;25.67;;;15.30;;
17091;SDS011;8661;45.700;4.880;2023-03-01T07:04:07;28.93;;;15.93;;
17091;SDS011;8661;45.700;4.880;2023-03-01T07:06:34;26.33;;;15.60;;
17091;SDS011;8661;45.700;4.880;2023-03-01T07:09:01;22.80;;;15.40;;
17091;SDS011;8661;45.700;4.880;2023-03-01T07:11:31;22.83;;;15.13;;
17091;SDS011;8661;45.700;4.880;2023-03-01T07:13:59;23.23;;;15.80;;
17091;SDS011;8661;45.700;4.880;2023-03-01T07:16:26;26.43;;;15.43;;
17091;SDS011;8661;45.700;4.880;2023-03-01T07:18:53;23.83;;;15.23;;
17091;SDS011;8661;45.700;4.880;2023-03-01T07:21:20;29.43;;;15.20;;
17091;SDS011;8661;45.700;4.880;2023-03-01T07:23:47;27.23;;;15.93;;
17091;SDS011;8661;45.700;4.880;2023-03-01T07:26:15;27.20;;;16.40;;
17091;SDS011;8661;45.700;4.880;2023-03-01T07:28:42;27.53;;;16.87;;
17091;SDS011;8661;45.700;4.880;2023-03-01T07:31:10;25.53;;;16.07;;
17091;SDS011;8661;45.700;4.880;2023-03-01T07:33:37;29.00;;;15.20;;
17091;SDS011;8661;45.700;4.880;2023-03-01T07:36:04;32.77;;;16.23;;
17091;SDS011;8661;45.700;4.880;2023-03-01T07:38:32;26.10;;;15.63;;
17091;SDS011;8661;45.700;4.880;2023-03-01T07:41:00;27.57;;;16.13;;
17091;SDS011;8661;45.700;4.880;2023-03-01T07:43:28;24.87;;;15.63;;
17091;SDS011;8661;45.700;4.880;2023-03-01T07:45:57;25.00;;;16.47;;
17091;SDS011;8661;45.700;4.880;2023-03-01T07:48:26;24.37;;;15.87;;
17091;SDS011;8661;45.700;4.880;2023-03-01T07:50:54;24.93;;;16.40;;
17091;SDS011;8661;45.700;4.880;2023-03-01T07:53:20;24.33;;;16.00;;
17091;SDS011;8661;45.700;4.880;2023-03-01T07:55:47;24.10;;;16.57;;
17091;SDS011;8661;45.700;4.880;2023-03-01T07:58:14;25.87;;;16.43;;
17091;SDS011;8661;45.700;4.880;2023-03-01T08:00:41;26.37;;;16.70;;
17091;SDS011;8661;45.700;4.880;2023-03-01T08:03:08;26.03;;;15.93;;
17091;SDS011;8661;45.700;4.880;2023-03-01T08:05:36;23.70;;;15.97;;
17091;SDS011;8661;45.700;4.880;2023-03-01T08:08:04;26.43;;;17.67;;
17091;SDS011;8661;45.700;4.880;2023-03-01T08:10:31;30.07;;;17.20;;
17091;SDS011;8661;45.700;4.880;2023-03-01T08:12:58;26.30;;;17.07;;
17091;SDS011;8661;45.700;4.880;2023-03-01T08:15:24;28.37;;;16.67;;
17091;SDS011;8661;45.700;4.880;2023-03-01T08:17:51;27.90;;;19.17;;
17091;SDS011;8661;45.700;4.880;2023-03-01T08:20:18;25.50;;;17.33;;
17091;SDS011;8661;45.700;4.880;2023-03-01T08:22:47;27.27;;;17.47;;
17091;SDS011;8661;45.700;4.880;2023-03-01T08:25:14;24.93;;;17.33;;
17091;SDS011;8661;45.700;4.880;2023-03-01T08:27:41;24.50;;;16.63;;
17091;SDS011;8661;45.700;4.880;2023-03-01T08:30:08;25.90;;;16.50;;
17091;SDS011;8661;45.700;4.880;2023-03-01T08:32:36;25.00;;;16.57;;
17091;SDS011;8661;45.700;4.880;2023-03-01T08:35:03;28.17;;;18.03;;
17091;SDS011;8661;45.700;4.880;2023-03-01T08:37:31;25.07;;;16.30;;
17091;SDS011;8661;45.700;4.880;2023-03-01T08:39:59;27.77;;;16.27;;
17091;SDS011;8661;45.700;4.880;2023-03-01T08:42:28;24.30;;;16.67;;
17091;SDS011;8661;45.700;4.880;2023-03-01T08:44:55;25.70;;;16.63;;
17091;SDS011;8661;45.700;4.880;2023-03-01T08:47:22;27.83;;;16.73;;
17091;SDS011;8661;45.700;4.880;2023-03-01T08:49:49;25.20;;;16.63;;
17091;SDS011;8661;45.700;4.880;2023-03-01T08:52:16;25.60;;;16.77;;
17091;SDS011;8661;45.700;4.880;2023-03-01T08:54:43;27.17;;;18.10;;
17091;SDS011;8661;45.700;4.880;2023-03-01T08:57:11;25.90;;;16.77;;
17091;SDS011;8661;45.700;4.880;2023-03-01T08:59:38;31.20;;;18.27;;
17091;SDS011;8661;45.700;4.880;2023-03-01T09:02:10;25.87;;;17.67;;
17091;SDS011;8661;45.700;4.880;2023-03-01T09:04:41;24.23;;;16.57;;
17091;SDS011;8661;45.700;4.880;2023-03-01T09:07:09;28.53;;;17.67;;
17091;SDS011;8661;45.700;4.880;2023-03-01T09:09:37;31.47;;;18.00;;
17091;SDS011;8661;45.700;4.880;2023-03-01T09:12:04;27.73;;;17.00;;
17091;SDS011;8661;45.700;4.880;2023-03-01T09:14:33;28.03;;;17.63;;
17091;SDS011;8661;45.700;4.880;2023-03-01T09:17:02;24.83;;;16.27;;
17091;SDS011;8661;45.700;4.880;2023-03-01T09:19:29;24.47;;;17.40;;
17091;SDS011;8661;45.700;4.880;2023-03-01T09:21:56;21.77;;;15.90;;
17091;SDS011;8661;45.700;4.880;2023-03-01T09:24:23;29.60;;;18.17;;
17091;SDS011;8661;45.700;4.880;2023-03-01T09:26:52;24.83;;;17.40;;
17091;SDS011;8661;45.700;4.880;2023-03-01T09:29:20;25.13;;;16.43;;
17091;SDS011;8661;45.700;4.880;2023-03-01T09:31:49;24.63;;;17.53;;
17091;SDS011;8661;45.700;4.880;2023-03-01T09:34:16;27.47;;;17.90;;
17091;SDS011;8661;45.700;4.880;2023-03-01T09:36:48;29.97;;;18.67;;
17091;SDS011;8661;45.700;4.880;2023-03-01T09:39:15;27.17;;;18.47;;
17091;SDS011;8661;45.700;4.880;2023-03-01T09:41:44;27.63;;;18.80;;
17091;SDS011;8661;45.700;4.880;2023-03-01T09:44:16;28.90;;;17.33;;
17091;SDS011;8661;45.700;4.880;2023-03-01T09:46:55;28.10;;;18.00;;
17091;SDS011;8661;45.700;4.880;2023-03-01T09:49:23;24.53;;;17.33;;
17091;SDS011;8661;45.700;4.880;2023-03-01T09:51:57;28.10;;;18.03;;
17091;SDS011;8661;45.700;4.880;2023-03-01T09:54:26;24.83;;;17.90;;
17091;SDS011;8661;45.700;4.880;2023-03-01T09:56:57;25.47;;;17.17;;
17091;SDS011;8661;45.700;4.880;2023-03-01T09:59:31;30.37;;;18.27;;
17091;SDS011;8661;45.700;4.880;2023-03-01T10:02:11;25.83;;;17.93;;
17091;SDS011;8661;45.700;4.880;2023-03-01T10:04:48;29.50;;;17.97;;
17091;SDS011;8661;45.700;4.880;2023-03-01T10:07:20;27.20;;;18.10;;
17091;SDS011;8661;45.700;4.880;2023-03-01T10:09:53;28.30;;;17.63;;
17091;SDS011;8661;45.700;4.880;2023-03-01T10:12:20;27.57;;;18.07;;
17091;SDS011;8661;45.700;4.880;2023-03-01T10:14:54;25.37;;;17.97;;
17091;SDS011;8661;45.700;4.880;2023-03-01T10:17:30;25.87;;;17.10;;
17091;SDS011;8661;45.700;4.880;2023-03-01T10:20:10;25.07;;;16.97;;
17091;SDS011;8661;45.700;4.880;2023-03-01T10:22:44;31.07;;;18.97;;
17091;SDS011;8661;45.700;4.880;2023-03-01T10:25:15;26.17;;;17.83;;
17091;SDS011;8661;45.700;4.880;2023-03-01T10:27:47;26.57;;;17.90;;
17091;SDS011;8661;45.700;4.880;2023-03-01T10:30:19;28.63;;;18.97;;
17091;SDS011;8661;45.700;4.880;2023-03-01T10:32:49;27.80;;;18.83;;
17091;SDS011;8661;45.700;4.880;2023-03-01T10:35:19;29.47;;;18.57;;
17091;SDS011;8661;45.700;4.880;2023-03-01T10:37:58;25.07;;;18.77;;
17091;SDS011;8661;45.700;4.880;2023-03-01T10:40:29;27.37;;;18.50;;
17091;SDS011;8661;45.700;4.880;2023-03-01T10:42:57;29.23;;;18.63;;
17091;SDS011;8661;45.700;4.880;2023-03-01T10:45:33;27.37;;;18.30;;
17091;SDS011;8661;45.700;4.880;2023-03-01T10:48:10;28.87;;;17.17;;
17091;SDS011;8661;45.700;4.880;2023-03-01T10:50:39;28.63;;;18.37;;
17091;SDS011;8661;45.700;4.880;2023-03-01T10:53:16;32.60;;;19.73;;
17091;SDS011;8661;45.700;4.880;2023-03-01T10:55:48;29.20;;;18.70;;
17091;SDS011;8661;45.700;4.880;2023-03-01T10:58:24;26.97;;;18.37;;
17091;SDS011;8661;45.700;4.880;2023-03-01T11:00:52;27.10;;;19.73;;
17091;SDS011;8661;45.700;4.880;2023-03-01T11:03:25;25.60;;;18.43;;
17091;SDS011;8661;45.700;4.880;2023-03-01T11:05:56;30.87;;;18.30;;
17091;SDS011;8661;45.700;4.880;2023-03-01T11:14:03;27.40;;;18.70;;
17091;SDS011;8661;45.700;4.880;2023-03-01T11:16:34;26.17;;;18.42;;
17091;SDS011;8661;45.700;4.880;2023-03-01T11:19:20;29.03;;;19.33;;
17091;SDS011;8661;45.700;4.880;2023-03-01T11:21:51;27.67;;;18.97;;
17091;SDS011;8661;45.700;4.880;2023-03-01T11:24:26;27.67;;;19.73;;
17091;SDS011;8661;45.700;4.880;2023-03-01T11:26:57;25.17;;;18.17;;
17091;SDS011;8661;45.700;4.880;2023-03-01T11:29:30;27.43;;;19.50;;
17091;SDS011;8661;45.700;4.880;2023-03-01T11:32:02;23.80;;;18.23;;
17091;SDS011;8661;45.700;4.880;2023-03-01T11:34:40;29.40;;;19.43;;
17091;SDS011;8661;45.700;4.880;2023-03-01T11:37:14;28.40;;;18.73;;
17091;SDS011;8661;45.700;4.880;2023-03-01T11:39:52;24.80;;;18.50;;
17091;SDS011;8661;45.700;4.880;2023-03-01T11:42:27;37.80;;;19.57;;
17091;SDS011;8661;45.700;4.880;2023-03-01T11:45:04;27.07;;;19.17;;
17091;SDS011;8661;45.700;4.880;2023-03-01T11:47:40;28.27;;;19.40;;
17091;SDS011;8661;45.700;4.880;2023-03-01T11:50:23;27.87;;;20.37;;
17091;SDS011;8661;45.700;4.880;2023-03-01T11:53:01;28.83;;;19.67;;
17091;SDS011;8661;45.700;4.880;2023-03-01T11:55:46;25.43;;;19.53;;
17091;SDS011;8661;45.700;4.880;2023-03-01T11:58:33;26.93;;;19.60;;
17091;SDS011;8661;45.700;4.880;2023-03-01T12:01:17;29.10;;;19.03;;
17091;SDS011;8661;45.700;4.880;2023-03-01T12:04:02;25.70;;;19.10;;
17091;SDS011;8661;45.700;4.880;2023-03-01T12:06:50;24.23;;;18.80;;
17091;SDS011;8661;45.700;4.880;2023-03-01T12:09:47;28.43;;;19.43;;
17091;SDS011;8661;45.700;4.880;2023-03-01T12:12:34;33.00;;;20.27;;
17091;SDS011;8661;45.700;4.880;2023-03-01T12:15:20;30.67;;;21.23;;
17091;SDS011;8661;45.700;4.880;2023-03-01T12:18:10;25.80;;;20.63;;
17091;SDS011;8661;45.700;4.880;2023-03-01T12:20:50;28.53;;;20.00;;
17091;SDS011;8661;45.700;4.880;2023-03-01T12:23:29;28.63;;;20.10;;
17091;SDS011;8661;45.700;4.880;2023-03-01T12:26:13;29.20;;;20.13;;
17091;SDS011;8661;45.700;4.880;2023-03-01T12:28:57;31.73;;;20.37;;
17091;SDS011;8661;45.700;4.880;2023-03-01T12:31:52;27.70;;;20.13;;
17091;SDS011;8661;45.700;4.880;2023-03-01T12:35:00;28.10;;;20.43;;
17091;SDS011;8661;45.700;4.880;2023-03-01T12:37:47;27.77;;;20.17;;
17091;SDS011;8661;45.700;4.880;2023-03-01T12:40:40;28.03;;;20.50;;
17091;SDS011;8661;45.700;4.880;2023-03-01T12:43:28;25.43;;;19.27;;
17091;SDS011;8661;45.700;4.880;2023-03-01T12:46:10;31.30;;;21.30;;
17091;SDS011;8661;45.700;4.880;2023-03-01T12:48:49;31.50;;;21.00;;
17091;SDS011;8661;45.700;4.880;2023-03-01T12:51:23;32.67;;;20.43;;
17091;SDS011;8661;45.700;4.880;2023-03-01T12:53:53;26.70;;;20.37;;
17091;SDS011;8661;45.700;4.880;2023-03-01T12:56:23;27.37;;;21.17;;
17091;SDS011;8661;45.700;4.880;2023-03-01T12:58:57;29.03;;;21.03;;
17091;SDS011;8661;45.700;4.880;2023-03-01T13:01:33;29.03;;;20.53;;
17091;SDS011;8661;45.700;4.880;2023-03-01T13:04:11;26.97;;;19.50;;
17091;SDS011;8661;45.700;4.880;2023-03-01T13:06:44;26.10;;;20.03;;
17091;SDS011;8661;45.700;4.880;2023-03-01T13:09:23;26.50;;;19.77;;
17091;SDS011;8661;45.700;4.880;2023-03-01T13:11:57;28.10;;;20.30;;
17091;SDS011;8661;45.700;4.880;2023-03-01T13:14:37;27.97;;;21.17;;
17091;SDS011;8661;45.700;4.880;2023-03-01T13:17:32;29.93;;;21.03;;
17091;SDS011;8661;45.700;4.880;2023-03-01T13:20:11;30.13;;;20.77;;
17091;SDS011;8661;45.700;4.880;2023-03-01T13:22:40;25.90;;;19.33;;
17091;SDS011;8661;45.700;4.880;2023-03-01T13:25:14;28.70;;;20.77;;
17091;SDS011;8661;45.700;4.880;2023-03-01T13:27:45;35.73;;;21.67;;
17091;SDS011;8661;45.700;4.880;2023-03-01T13:42:00;29.93;;;20.73;;
17091;SDS011;8661;45.700;4.880;2023-03-01T13:44:30;31.30;;;20.17;;
17091;SDS011;8661;45.700;4.880;2023-03-01T13:47:03;33.37;;;20.70;;
17091;SDS011;8661;45.700;4.880;2023-03-01T13:49:41;30.03;;;20.77;;
17091;SDS011;8661;45.700;4.880;2023-03-01T13:52:26;32.67;;;21.57;;
17091;SDS011;8661;45.700;4.880;2023-03-01T13:55:01;30.73;;;21.53;;
17091;SDS011;8661;45.700;4.880;2023-03-01T13:57:31;28.10;;;20.67;;
17091;SDS011;8661;45.700;4.880;2023-03-01T14:00:02;29.73;;;20.87;;
17091;SDS011;8661;45.700;4.880;2023-03-01T14:02:30;29.53;;;21.87;;
17091;SDS011;8661;45.700;4.880;2023-03-01T14:04:59;32.93;;;22.63;;
17091;SDS011;8661;45.700;4.880;2023-03-01T14:07:27;35.80;;;21.90;;
17091;SDS011;8661;45.700;4.880;2023-03-01T14:09:56;31.33;;;21.10;;
17091;SDS011;8661;45.700;4.880;2023-03-01T14:12:27;33.47;;;22.13;;
17091;SDS011;8661;45.700;4.880;2023-03-01T14:15:08;33.03;;;22.37;;
17091;SDS011;8661;45.700;4.880;2023-03-01T14:17:47;31.73;;;21.40;;
17091;SDS011;8661;45.700;4.880;2023-03-01T14:20:20;33.77;;;22.03;;
17091;SDS011;8661;45.700;4.880;2023-03-01T14:22:48;32.90;;;22.10;;
17091;SDS011;8661;45.700;4.880;2023-03-01T14:25:25;36.00;;;22.70;;
17091;SDS011;8661;45.700;4.880;2023-03-01T14:27:56;31.97;;;21.77;;
17091;SDS011;8661;45.700;4.880;2023-03-01T14:30:27;30.63;;;21.40;;
17091;SDS011;8661;45.700;4.880;2023-03-01T14:32:59;32.03;;;21.63;;
17091;SDS011;8661;45.700;4.880;2023-03-01T14:35:27;32.03;;;21.73;;
17091;SDS011;8661;45.700;4.880;2023-03-01T14:37:56;35.60;;;21.80;;
17091;SDS011;8661;45.700;4.880;2023-03-01T14:40:25;32.97;;;21.50;;
17091;SDS011;8661;45.700;4.880;2023-03-01T14:42:54;30.87;;;20.83;;
17091;SDS011;8661;45.700;4.880;2023-03-01T14:45:25;31.83;;;20.23;;
17091;SDS011;8661;45.700;4.880;2023-03-01T14:47:55;30.33;;;18.87;;
17091;SDS011;8661;45.700;4.880;2023-03-01T14:50:27;27.03;;;19.67;;
17091;SDS011;8661;45.700;4.880;2023-03-01T14:52:57;27.07;;;19.67;;
17091;SDS011;8661;45.700;4.880;2023-03-01T14:55:26;30.30;;;20.33;;
17091;SDS011;8661;45.700;4.880;2023-03-01T14:57:56;26.10;;;19.63;;
17091;SDS011;8661;45.700;4.880;2023-03-01T15:00:24;29.23;;;20.17;;
17091;SDS011;8661;45.700;4.880;2023-03-01T15:02:54;28.67;;;19.40;;
17091;SDS011;8661;45.700;4.880;2023-03-01T15:05:26;29.70;;;19.40;;
17091;SDS011;8661;45.700;4.880;2023-03-01T15:07:56;27.83;;;19.40;;
17091;SDS011;8661;45.700;4.880;2023-03-01T15:10:25;28.33;;;19.50;;
17091;SDS011;8661;45.700;4.880;2023-03-01T15:12:53;31.30;;;20.07;;